Terminal Aerodrome Forecast
Issued by NWS Kansas City/Pleasant Hill, MO

Home | Current Version | Previous Version | Text Only | Print | Product List | Glossary On
Versions: 1 2 3 4 5 6 7 8 9 10 11 12 13 14
768
FTUS43 KEAX 051120
TAFMCI
TAF
KMCI 051120Z 0512/0612 17012KT P6SM FEW200
     FM060000 16006KT P6SM BKN150
     FM060900 33012KT P6SM BKN030=

USA.gov is the U.S. government's official web portal to all federal, state and local government web resources and services.